sensor_id;sensor_type;location;lat;lon;timestamp;P1;durP1;ratioP1;P2;durP2;ratioP2
22336;SDS011;14992;50.844;4.418;2023-04-16T00:01:43;5.50;;;5.00;;
22336;SDS011;14992;50.844;4.418;2023-04-16T00:04:12;19.42;;;9.98;;
22336;SDS011;14992;50.844;4.418;2023-04-16T00:06:41;7.72;;;5.13;;
22336;SDS011;14992;50.844;4.418;2023-04-16T00:09:10;7.75;;;3.92;;
22336;SDS011;14992;50.844;4.418;2023-04-16T00:11:40;9.02;;;4.00;;
22336;SDS011;14992;50.844;4.418;2023-04-16T00:14:09;8.10;;;4.15;;
22336;SDS011;14992;50.844;4.418;2023-04-16T00:16:38;9.48;;;4.50;;
22336;SDS011;14992;50.844;4.418;2023-04-16T00:19:08;6.60;;;4.28;;
22336;SDS011;14992;50.844;4.418;2023-04-16T00:21:39;10.05;;;3.85;;
22336;SDS011;14992;50.844;4.418;2023-04-16T00:24:08;5.75;;;3.72;;
22336;SDS011;14992;50.844;4.418;2023-04-16T00:26:37;9.50;;;4.55;;
22336;SDS011;14992;50.844;4.418;2023-04-16T00:29:08;5.07;;;4.55;;
22336;SDS011;14992;50.844;4.418;2023-04-16T00:31:37;8.18;;;5.50;;
22336;SDS011;14992;50.844;4.418;2023-04-16T00:34:06;9.95;;;5.05;;
22336;SDS011;14992;50.844;4.418;2023-04-16T00:36:35;9.02;;;5.18;;
22336;SDS011;14992;50.844;4.418;2023-04-16T00:39:04;6.57;;;4.85;;
22336;SDS011;14992;50.844;4.418;2023-04-16T00:41:34;7.65;;;4.10;;
22336;SDS011;14992;50.844;4.418;2023-04-16T00:44:04;9.60;;;3.28;;
22336;SDS011;14992;50.844;4.418;2023-04-16T00:46:36;7.53;;;3.67;;
22336;SDS011;14992;50.844;4.418;2023-04-16T00:49:06;6.20;;;3.40;;
22336;SDS011;14992;50.844;4.418;2023-04-16T00:51:35;10.23;;;3.63;;
22336;SDS011;14992;50.844;4.418;2023-04-16T00:54:04;7.30;;;3.72;;
22336;SDS011;14992;50.844;4.418;2023-04-16T00:56:34;5.53;;;3.90;;
22336;SDS011;14992;50.844;4.418;2023-04-16T00:59:03;3.92;;;3.22;;
22336;SDS011;14992;50.844;4.418;2023-04-16T01:01:33;5.53;;;3.28;;
22336;SDS011;14992;50.844;4.418;2023-04-16T01:04:04;11.20;;;4.30;;
22336;SDS011;14992;50.844;4.418;2023-04-16T01:06:34;5.85;;;3.53;;
22336;SDS011;14992;50.844;4.418;2023-04-16T01:09:04;8.20;;;3.97;;
22336;SDS011;14992;50.844;4.418;2023-04-16T01:11:33;6.57;;;5.00;;
22336;SDS011;14992;50.844;4.418;2023-04-16T01:14:04;3.33;;;2.65;;
22336;SDS011;14992;50.844;4.418;2023-04-16T01:16:33;3.42;;;2.60;;
22336;SDS011;14992;50.844;4.418;2023-04-16T01:19:02;6.57;;;3.47;;
22336;SDS011;14992;50.844;4.418;2023-04-16T01:21:35;6.25;;;3.45;;
22336;SDS011;14992;50.844;4.418;2023-04-16T01:24:04;8.75;;;3.22;;
22336;SDS011;14992;50.844;4.418;2023-04-16T01:26:33;4.85;;;2.97;;
22336;SDS011;14992;50.844;4.418;2023-04-16T01:29:02;4.95;;;2.83;;
22336;SDS011;14992;50.844;4.418;2023-04-16T01:31:31;7.05;;;2.67;;
22336;SDS011;14992;50.844;4.418;2023-04-16T01:34:04;3.92;;;2.38;;
22336;SDS011;14992;50.844;4.418;2023-04-16T01:36:35;3.63;;;2.05;;
22336;SDS011;14992;50.844;4.418;2023-04-16T01:39:06;4.63;;;2.28;;
22336;SDS011;14992;50.844;4.418;2023-04-16T01:41:37;2.78;;;2.53;;
22336;SDS011;14992;50.844;4.418;2023-04-16T01:44:07;10.10;;;2.90;;
22336;SDS011;14992;50.844;4.418;2023-04-16T01:46:35;4.43;;;2.10;;
22336;SDS011;14992;50.844;4.418;2023-04-16T01:49:05;4.30;;;2.42;;
22336;SDS011;14992;50.844;4.418;2023-04-16T01:51:36;3.83;;;2.53;;
22336;SDS011;14992;50.844;4.418;2023-04-16T01:54:05;3.95;;;2.33;;
22336;SDS011;14992;50.844;4.418;2023-04-16T01:56:35;2.58;;;1.88;;
22336;SDS011;14992;50.844;4.418;2023-04-16T01:59:04;3.97;;;2.60;;
22336;SDS011;14992;50.844;4.418;2023-04-16T02:01:38;3.00;;;2.05;;
22336;SDS011;14992;50.844;4.418;2023-04-16T02:04:08;3.97;;;2.13;;
22336;SDS011;14992;50.844;4.418;2023-04-16T02:06:39;3.85;;;2.80;;
22336;SDS011;14992;50.844;4.418;2023-04-16T02:09:08;3.25;;;2.95;;
22336;SDS011;14992;50.844;4.418;2023-04-16T02:11:38;8.65;;;2.92;;
22336;SDS011;14992;50.844;4.418;2023-04-16T02:14:07;4.28;;;2.67;;
22336;SDS011;14992;50.844;4.418;2023-04-16T02:16:36;3.28;;;2.65;;
22336;SDS011;14992;50.844;4.418;2023-04-16T02:19:15;4.60;;;2.92;;
22336;SDS011;14992;50.844;4.418;2023-04-16T02:21:46;10.48;;;3.40;;
22336;SDS011;14992;50.844;4.418;2023-04-16T02:24:15;3.65;;;2.83;;
22336;SDS011;14992;50.844;4.418;2023-04-16T02:26:44;4.03;;;3.60;;
22336;SDS011;14992;50.844;4.418;2023-04-16T02:29:16;4.95;;;2.88;;
22336;SDS011;14992;50.844;4.418;2023-04-16T02:31:51;4.68;;;3.33;;
22336;SDS011;14992;50.844;4.418;2023-04-16T02:34:21;4.57;;;2.80;;
22336;SDS011;14992;50.844;4.418;2023-04-16T02:36:51;5.45;;;3.63;;
22336;SDS011;14992;50.844;4.418;2023-04-16T02:39:21;4.90;;;2.88;;
22336;SDS011;14992;50.844;4.418;2023-04-16T02:41:52;7.25;;;2.72;;
22336;SDS011;14992;50.844;4.418;2023-04-16T02:44:21;9.48;;;2.90;;
22336;SDS011;14992;50.844;4.418;2023-04-16T02:46:50;4.63;;;2.90;;
22336;SDS011;14992;50.844;4.418;2023-04-16T02:49:19;6.22;;;3.10;;
22336;SDS011;14992;50.844;4.418;2023-04-16T02:51:48;3.70;;;2.28;;
22336;SDS011;14992;50.844;4.418;2023-04-16T02:54:18;7.20;;;3.35;;
22336;SDS011;14992;50.844;4.418;2023-04-16T02:56:47;4.95;;;2.95;;
22336;SDS011;14992;50.844;4.418;2023-04-16T02:59:17;6.05;;;3.05;;
22336;SDS011;14992;50.844;4.418;2023-04-16T03:01:46;7.78;;;3.03;;
22336;SDS011;14992;50.844;4.418;2023-04-16T03:04:15;3.67;;;3.10;;
22336;SDS011;14992;50.844;4.418;2023-04-16T03:06:44;3.83;;;2.65;;
22336;SDS011;14992;50.844;4.418;2023-04-16T03:09:15;4.28;;;3.05;;
22336;SDS011;14992;50.844;4.418;2023-04-16T03:11:43;8.63;;;2.88;;
22336;SDS011;14992;50.844;4.418;2023-04-16T03:14:12;10.45;;;4.50;;
22336;SDS011;14992;50.844;4.418;2023-04-16T03:16:41;6.47;;;2.92;;
22336;SDS011;14992;50.844;4.418;2023-04-16T03:19:10;7.32;;;2.58;;
22336;SDS011;14992;50.844;4.418;2023-04-16T03:21:39;5.10;;;2.90;;
22336;SDS011;14992;50.844;4.418;2023-04-16T03:24:08;3.42;;;2.55;;
22336;SDS011;14992;50.844;4.418;2023-04-16T03:26:38;7.95;;;3.00;;
22336;SDS011;14992;50.844;4.418;2023-04-16T03:29:09;5.75;;;2.88;;
22336;SDS011;14992;50.844;4.418;2023-04-16T03:31:38;4.20;;;2.33;;
22336;SDS011;14992;50.844;4.418;2023-04-16T03:34:07;5.38;;;2.50;;
22336;SDS011;14992;50.844;4.418;2023-04-16T03:36:38;4.30;;;2.83;;
22336;SDS011;14992;50.844;4.418;2023-04-16T03:39:07;3.58;;;2.28;;
22336;SDS011;14992;50.844;4.418;2023-04-16T03:41:37;4.28;;;2.40;;
22336;SDS011;14992;50.844;4.418;2023-04-16T03:44:07;5.57;;;2.45;;
22336;SDS011;14992;50.844;4.418;2023-04-16T03:46:36;5.00;;;2.25;;
22336;SDS011;14992;50.844;4.418;2023-04-16T03:49:05;4.78;;;2.45;;
22336;SDS011;14992;50.844;4.418;2023-04-16T03:51:35;4.45;;;2.08;;
22336;SDS011;14992;50.844;4.418;2023-04-16T03:54:04;6.50;;;2.28;;
22336;SDS011;14992;50.844;4.418;2023-04-16T03:56:33;6.97;;;2.08;;
22336;SDS011;14992;50.844;4.418;2023-04-16T03:59:03;4.65;;;2.10;;
22336;SDS011;14992;50.844;4.418;2023-04-16T04:01:33;7.05;;;2.40;;
22336;SDS011;14992;50.844;4.418;2023-04-16T04:04:03;5.30;;;1.67;;
22336;SDS011;14992;50.844;4.418;2023-04-16T04:06:32;6.10;;;1.92;;
22336;SDS011;14992;50.844;4.418;2023-04-16T04:09:01;5.75;;;2.13;;
22336;SDS011;14992;50.844;4.418;2023-04-16T04:11:32;7.88;;;2.42;;
22336;SDS011;14992;50.844;4.418;2023-04-16T04:14:04;4.47;;;2.65;;
22336;SDS011;14992;50.844;4.418;2023-04-16T04:16:33;4.22;;;2.70;;
22336;SDS011;14992;50.844;4.418;2023-04-16T04:19:03;3.25;;;2.38;;
22336;SDS011;14992;50.844;4.418;2023-04-16T04:21:32;6.18;;;2.65;;
22336;SDS011;14992;50.844;4.418;2023-04-16T04:24:03;6.43;;;3.15;;
22336;SDS011;14992;50.844;4.418;2023-04-16T04:26:33;4.63;;;2.95;;
22336;SDS011;14992;50.844;4.418;2023-04-16T04:29:03;6.40;;;2.90;;
22336;SDS011;14992;50.844;4.418;2023-04-16T04:31:33;7.70;;;3.83;;
22336;SDS011;14992;50.844;4.418;2023-04-16T04:34:02;6.50;;;3.63;;
22336;SDS011;14992;50.844;4.418;2023-04-16T04:36:31;5.68;;;3.88;;
22336;SDS011;14992;50.844;4.418;2023-04-16T04:39:01;6.28;;;3.53;;
22336;SDS011;14992;50.844;4.418;2023-04-16T04:41:30;4.93;;;3.47;;
22336;SDS011;14992;50.844;4.418;2023-04-16T04:43:59;7.10;;;4.13;;
22336;SDS011;14992;50.844;4.418;2023-04-16T04:46:29;6.85;;;3.60;;
22336;SDS011;14992;50.844;4.418;2023-04-16T04:48:59;6.75;;;4.20;;
22336;SDS011;14992;50.844;4.418;2023-04-16T04:51:28;6.10;;;4.20;;
22336;SDS011;14992;50.844;4.418;2023-04-16T04:53:57;6.90;;;4.63;;
22336;SDS011;14992;50.844;4.418;2023-04-16T04:56:27;6.65;;;4.68;;
22336;SDS011;14992;50.844;4.418;2023-04-16T04:58:57;8.48;;;4.25;;
22336;SDS011;14992;50.844;4.418;2023-04-16T05:01:27;10.45;;;4.20;;
22336;SDS011;14992;50.844;4.418;2023-04-16T05:04:04;7.80;;;4.75;;
22336;SDS011;14992;50.844;4.418;2023-04-16T05:06:33;7.97;;;4.50;;
22336;SDS011;14992;50.844;4.418;2023-04-16T05:09:03;11.30;;;4.10;;
22336;SDS011;14992;50.844;4.418;2023-04-16T05:11:32;7.15;;;4.10;;
22336;SDS011;14992;50.844;4.418;2023-04-16T05:14:01;7.47;;;4.45;;
22336;SDS011;14992;50.844;4.418;2023-04-16T05:16:31;7.60;;;3.78;;
22336;SDS011;14992;50.844;4.418;2023-04-16T05:19:03;6.03;;;3.45;;
22336;SDS011;14992;50.844;4.418;2023-04-16T05:21:33;5.93;;;3.78;;
22336;SDS011;14992;50.844;4.418;2023-04-16T05:24:02;8.25;;;2.58;;
22336;SDS011;14992;50.844;4.418;2023-04-16T05:26:31;8.50;;;3.88;;
22336;SDS011;14992;50.844;4.418;2023-04-16T05:29:00;5.82;;;2.58;;
22336;SDS011;14992;50.844;4.418;2023-04-16T05:31:29;6.25;;;3.15;;
22336;SDS011;14992;50.844;4.418;2023-04-16T05:33:59;6.10;;;2.72;;
22336;SDS011;14992;50.844;4.418;2023-04-16T05:36:28;7.68;;;2.47;;
22336;SDS011;14992;50.844;4.418;2023-04-16T05:38:58;6.63;;;2.65;;
22336;SDS011;14992;50.844;4.418;2023-04-16T05:41:27;6.10;;;2.50;;
22336;SDS011;14992;50.844;4.418;2023-04-16T05:43:58;7.82;;;2.78;;
22336;SDS011;14992;50.844;4.418;2023-04-16T05:46:27;3.75;;;2.00;;
22336;SDS011;14992;50.844;4.418;2023-04-16T05:48:56;5.25;;;2.05;;
22336;SDS011;14992;50.844;4.418;2023-04-16T05:51:26;7.22;;;2.00;;
22336;SDS011;14992;50.844;4.418;2023-04-16T05:53:55;6.47;;;2.25;;
22336;SDS011;14992;50.844;4.418;2023-04-16T05:56:24;4.13;;;1.85;;
22336;SDS011;14992;50.844;4.418;2023-04-16T05:58:53;6.88;;;2.05;;
22336;SDS011;14992;50.844;4.418;2023-04-16T06:01:22;4.85;;;2.05;;
22336;SDS011;14992;50.844;4.418;2023-04-16T06:03:51;4.82;;;2.10;;
22336;SDS011;14992;50.844;4.418;2023-04-16T06:06:20;6.93;;;2.22;;
22336;SDS011;14992;50.844;4.418;2023-04-16T06:08:50;4.78;;;1.95;;
22336;SDS011;14992;50.844;4.418;2023-04-16T06:11:19;7.05;;;2.63;;
22336;SDS011;14992;50.844;4.418;2023-04-16T06:13:48;6.00;;;2.40;;
22336;SDS011;14992;50.844;4.418;2023-04-16T06:16:17;4.20;;;2.55;;
22336;SDS011;14992;50.844;4.418;2023-04-16T06:18:47;6.20;;;2.63;;
22336;SDS011;14992;50.844;4.418;2023-04-16T06:21:16;6.35;;;3.00;;
22336;SDS011;14992;50.844;4.418;2023-04-16T06:23:45;5.75;;;2.58;;
22336;SDS011;14992;50.844;4.418;2023-04-16T06:26:15;4.57;;;3.05;;
22336;SDS011;14992;50.844;4.418;2023-04-16T06:28:45;5.38;;;2.45;;
22336;SDS011;14992;50.844;4.418;2023-04-16T06:31:14;6.05;;;2.65;;
22336;SDS011;14992;50.844;4.418;2023-04-16T06:33:43;9.25;;;3.25;;
22336;SDS011;14992;50.844;4.418;2023-04-16T06:36:11;5.20;;;3.55;;
22336;SDS011;14992;50.844;4.418;2023-04-16T06:38:40;8.02;;;4.13;;
22336;SDS011;14992;50.844;4.418;2023-04-16T06:41:09;5.00;;;3.33;;
22336;SDS011;14992;50.844;4.418;2023-04-16T06:43:40;7.72;;;2.63;;
22336;SDS011;14992;50.844;4.418;2023-04-16T06:46:09;7.70;;;2.88;;
22336;SDS011;14992;50.844;4.418;2023-04-16T06:48:38;6.85;;;3.63;;
22336;SDS011;14992;50.844;4.418;2023-04-16T06:51:07;6.03;;;3.78;;
22336;SDS011;14992;50.844;4.418;2023-04-16T06:53:39;5.85;;;3.40;;
22336;SDS011;14992;50.844;4.418;2023-04-16T06:56:10;8.10;;;3.08;;
22336;SDS011;14992;50.844;4.418;2023-04-16T06:58:40;5.72;;;2.83;;
22336;SDS011;14992;50.844;4.418;2023-04-16T07:01:09;6.95;;;2.92;;
22336;SDS011;14992;50.844;4.418;2023-04-16T07:03:38;12.48;;;5.82;;
22336;SDS011;14992;50.844;4.418;2023-04-16T07:06:08;8.50;;;3.42;;
22336;SDS011;14992;50.844;4.418;2023-04-16T07:08:37;6.00;;;3.72;;
22336;SDS011;14992;50.844;4.418;2023-04-16T07:11:06;8.82;;;3.90;;
22336;SDS011;14992;50.844;4.418;2023-04-16T07:13:36;9.98;;;4.47;;
22336;SDS011;14992;50.844;4.418;2023-04-16T07:16:06;7.43;;;4.13;;
22336;SDS011;14992;50.844;4.418;2023-04-16T07:18:36;8.98;;;4.25;;
22336;SDS011;14992;50.844;4.418;2023-04-16T07:21:05;10.90;;;4.50;;
22336;SDS011;14992;50.844;4.418;2023-04-16T07:23:34;8.80;;;4.95;;
22336;SDS011;14992;50.844;4.418;2023-04-16T07:26:03;10.88;;;4.78;;
22336;SDS011;14992;50.844;4.418;2023-04-16T07:28:32;12.35;;;4.72;;
22336;SDS011;14992;50.844;4.418;2023-04-16T07:31:01;8.52;;;4.70;;
22336;SDS011;14992;50.844;4.418;2023-04-16T07:33:34;7.95;;;3.88;;
22336;SDS011;14992;50.844;4.418;2023-04-16T07:36:04;11.32;;;4.85;;
22336;SDS011;14992;50.844;4.418;2023-04-16T07:38:33;10.90;;;4.82;;
22336;SDS011;14992;50.844;4.418;2023-04-16T07:41:02;13.02;;;5.40;;
22336;SDS011;14992;50.844;4.418;2023-04-16T07:43:35;11.15;;;5.50;;
22336;SDS011;14992;50.844;4.418;2023-04-16T07:48:36;10.90;;;4.80;;
22336;SDS011;14992;50.844;4.418;2023-04-16T07:51:05;11.77;;;4.97;;
22336;SDS011;14992;50.844;4.418;2023-04-16T07:53:35;8.75;;;4.68;;
22336;SDS011;14992;50.844;4.418;2023-04-16T07:56:07;12.45;;;5.35;;
22336;SDS011;14992;50.844;4.418;2023-04-16T07:58:39;10.05;;;5.72;;
22336;SDS011;14992;50.844;4.418;2023-04-16T08:01:14;13.18;;;5.65;;
22336;SDS011;14992;50.844;4.418;2023-04-16T08:03:45;12.68;;;5.45;;
22336;SDS011;14992;50.844;4.418;2023-04-16T08:06:15;11.18;;;5.82;;
22336;SDS011;14992;50.844;4.418;2023-04-16T08:08:44;13.00;;;6.53;;
22336;SDS011;14992;50.844;4.418;2023-04-16T08:11:13;14.38;;;6.82;;
22336;SDS011;14992;50.844;4.418;2023-04-16T08:13:48;12.85;;;6.57;;
22336;SDS011;14992;50.844;4.418;2023-04-16T08:16:20;14.43;;;6.20;;
22336;SDS011;14992;50.844;4.418;2023-04-16T08:18:50;11.40;;;6.40;;
22336;SDS011;14992;50.844;4.418;2023-04-16T08:21:19;16.48;;;6.75;;
22336;SDS011;14992;50.844;4.418;2023-04-16T08:23:48;18.42;;;7.28;;
22336;SDS011;14992;50.844;4.418;2023-04-16T08:26:17;9.75;;;6.03;;
22336;SDS011;14992;50.844;4.418;2023-04-16T08:28:46;12.93;;;6.07;;
22336;SDS011;14992;50.844;4.418;2023-04-16T08:31:15;15.00;;;6.00;;
22336;SDS011;14992;50.844;4.418;2023-04-16T08:33:44;10.63;;;6.00;;
22336;SDS011;14992;50.844;4.418;2023-04-16T08:36:14;10.90;;;5.00;;
22336;SDS011;14992;50.844;4.418;2023-04-16T08:38:43;8.50;;;4.88;;
22336;SDS011;14992;50.844;4.418;2023-04-16T08:41:12;10.40;;;5.35;;
22336;SDS011;14992;50.844;4.418;2023-04-16T08:43:43;14.13;;;4.97;;
22336;SDS011;14992;50.844;4.418;2023-04-16T08:46:14;15.07;;;6.32;;
22336;SDS011;14992;50.844;4.418;2023-04-16T08:48:47;11.82;;;6.30;;
22336;SDS011;14992;50.844;4.418;2023-04-16T08:51:21;14.07;;;6.22;;
22336;SDS011;14992;50.844;4.418;2023-04-16T08:53:51;11.88;;;5.93;;
22336;SDS011;14992;50.844;4.418;2023-04-16T08:56:22;14.50;;;7.57;;
22336;SDS011;14992;50.844;4.418;2023-04-16T08:58:52;12.40;;;6.82;;
22336;SDS011;14992;50.844;4.418;2023-04-16T09:01:22;17.65;;;8.25;;
22336;SDS011;14992;50.844;4.418;2023-04-16T09:03:53;13.32;;;6.38;;
22336;SDS011;14992;50.844;4.418;2023-04-16T09:06:24;15.50;;;6.97;;
22336;SDS011;14992;50.844;4.418;2023-04-16T09:08:55;14.65;;;7.57;;
22336;SDS011;14992;50.844;4.418;2023-04-16T09:11:26;13.77;;;6.97;;
22336;SDS011;14992;50.844;4.418;2023-04-16T09:13:57;17.20;;;6.70;;
22336;SDS011;14992;50.844;4.418;2023-04-16T09:16:27;16.60;;;6.15;;
22336;SDS011;14992;50.844;4.418;2023-04-16T09:19:00;12.75;;;5.97;;
22336;SDS011;14992;50.844;4.418;2023-04-16T09:21:31;14.85;;;6.95;;
22336;SDS011;14992;50.844;4.418;2023-04-16T09:24:00;12.98;;;6.38;;
22336;SDS011;14992;50.844;4.418;2023-04-16T09:26:31;13.98;;;5.88;;
22336;SDS011;14992;50.844;4.418;2023-04-16T09:29:00;13.27;;;7.38;;
22336;SDS011;14992;50.844;4.418;2023-04-16T09:31:29;15.32;;;6.55;;
22336;SDS011;14992;50.844;4.418;2023-04-16T09:34:01;12.82;;;6.53;;
22336;SDS011;14992;50.844;4.418;2023-04-16T09:36:33;13.75;;;7.13;;
22336;SDS011;14992;50.844;4.418;2023-04-16T09:39:03;12.60;;;7.35;;
22336;SDS011;14992;50.844;4.418;2023-04-16T09:41:32;10.10;;;6.70;;
22336;SDS011;14992;50.844;4.418;2023-04-16T09:44:06;13.80;;;7.38;;
22336;SDS011;14992;50.844;4.418;2023-04-16T09:46:39;14.70;;;7.10;;
22336;SDS011;14992;50.844;4.418;2023-04-16T09:49:09;15.52;;;7.10;;
22336;SDS011;14992;50.844;4.418;2023-04-16T09:51:42;13.35;;;7.38;;
22336;SDS011;14992;50.844;4.418;2023-04-16T09:54:13;15.25;;;6.85;;
22336;SDS011;14992;50.844;4.418;2023-04-16T09:56:42;16.58;;;6.88;;
22336;SDS011;14992;50.844;4.418;2023-04-16T09:59:15;9.13;;;6.20;;
22336;SDS011;14992;50.844;4.418;2023-04-16T10:01:44;15.20;;;6.50;;
22336;SDS011;14992;50.844;4.418;2023-04-16T10:04:15;10.88;;;6.32;;
22336;SDS011;14992;50.844;4.418;2023-04-16T10:06:47;10.05;;;5.70;;
22336;SDS011;14992;50.844;4.418;2023-04-16T10:09:31;11.73;;;6.40;;
22336;SDS011;14992;50.844;4.418;2023-04-16T10:12:04;13.35;;;5.95;;
22336;SDS011;14992;50.844;4.418;2023-04-16T10:14:33;12.82;;;6.60;;
22336;SDS011;14992;50.844;4.418;2023-04-16T10:17:02;12.35;;;6.95;;
22336;SDS011;14992;50.844;4.418;2023-04-16T10:19:32;12.07;;;6.00;;
22336;SDS011;14992;50.844;4.418;2023-04-16T10:22:03;11.25;;;6.03;;
22336;SDS011;14992;50.844;4.418;2023-04-16T10:24:33;12.10;;;5.90;;
22336;SDS011;14992;50.844;4.418;2023-04-16T10:27:02;10.07;;;5.60;;
22336;SDS011;14992;50.844;4.418;2023-04-16T10:29:32;9.65;;;6.25;;
22336;SDS011;14992;50.844;4.418;2023-04-16T10:32:02;12.57;;;7.30;;
22336;SDS011;14992;50.844;4.418;2023-04-16T10:34:31;13.68;;;7.22;;
22336;SDS011;14992;50.844;4.418;2023-04-16T10:37:01;13.65;;;6.53;;
22336;SDS011;14992;50.844;4.418;2023-04-16T10:39:33;11.35;;;6.85;;
22336;SDS011;14992;50.844;4.418;2023-04-16T10:42:07;14.10;;;7.60;;
22336;SDS011;14992;50.844;4.418;2023-04-16T10:44:38;13.25;;;7.13;;
22336;SDS011;14992;50.844;4.418;2023-04-16T10:47:11;15.05;;;7.57;;
22336;SDS011;14992;50.844;4.418;2023-04-16T10:49:41;16.42;;;7.68;;
22336;SDS011;14992;50.844;4.418;2023-04-16T10:52:11;13.40;;;6.90;;
22336;SDS011;14992;50.844;4.418;2023-04-16T10:57:14;16.83;;;6.57;;
22336;SDS011;14992;50.844;4.418;2023-04-16T10:59:44;15.05;;;7.57;;
22336;SDS011;14992;50.844;4.418;2023-04-16T11:02:16;13.15;;;7.38;;
22336;SDS011;14992;50.844;4.418;2023-04-16T11:04:46;14.82;;;7.00;;
22336;SDS011;14992;50.844;4.418;2023-04-16T11:07:17;13.10;;;7.68;;
22336;SDS011;14992;50.844;4.418;2023-04-16T11:09:52;10.65;;;6.70;;
22336;SDS011;14992;50.844;4.418;2023-04-16T11:12:24;17.08;;;7.18;;
22336;SDS011;14992;50.844;4.418;2023-04-16T11:14:58;14.32;;;7.80;;
22336;SDS011;14992;50.844;4.418;2023-04-16T11:17:29;10.95;;;6.80;;
22336;SDS011;14992;50.844;4.418;2023-04-16T11:20:01;11.93;;;6.75;;
22336;SDS011;14992;50.844;4.418;2023-04-16T11:22:45;17.58;;;7.70;;
22336;SDS011;14992;50.844;4.418;2023-04-16T11:25:19;12.25;;;7.50;;
22336;SDS011;14992;50.844;4.418;2023-04-16T11:27:49;16.27;;;7.70;;
22336;SDS011;14992;50.844;4.418;2023-04-16T11:30:26;15.02;;;7.80;;
22336;SDS011;14992;50.844;4.418;2023-04-16T11:32:57;14.65;;;6.95;;
22336;SDS011;14992;50.844;4.418;2023-04-16T11:35:26;11.05;;;5.93;;
22336;SDS011;14992;50.844;4.418;2023-04-16T11:37:55;15.40;;;7.05;;
22336;SDS011;14992;50.844;4.418;2023-04-16T11:40:32;16.48;;;8.15;;
22336;SDS011;14992;50.844;4.418;2023-04-16T11:43:03;19.13;;;7.30;;
22336;SDS011;14992;50.844;4.418;2023-04-16T11:45:52;13.23;;;7.00;;
22336;SDS011;14992;50.844;4.418;2023-04-16T11:48:25;15.32;;;8.57;;
22336;SDS011;14992;50.844;4.418;2023-04-16T11:51:13;16.13;;;8.13;;
22336;SDS011;14992;50.844;4.418;2023-04-16T11:53:48;15.32;;;8.23;;
22336;SDS011;14992;50.844;4.418;2023-04-16T11:56:26;13.68;;;8.20;;
22336;SDS011;14992;50.844;4.418;2023-04-16T11:59:06;10.90;;;8.20;;
22336;SDS011;14992;50.844;4.418;2023-04-16T12:01:37;14.07;;;6.32;;
22336;SDS011;14992;50.844;4.418;2023-04-16T12:04:07;16.85;;;6.60;;
22336;SDS011;14992;50.844;4.418;2023-04-16T12:06:37;14.68;;;8.52;;
22336;SDS011;14992;50.844;4.418;2023-04-16T12:09:22;16.30;;;7.88;;
22336;SDS011;14992;50.844;4.418;2023-04-16T12:11:52;18.52;;;8.40;;
22336;SDS011;14992;50.844;4.418;2023-04-16T12:14:21;16.50;;;7.63;;
22336;SDS011;14992;50.844;4.418;2023-04-16T12:16:50;12.88;;;8.38;;
22336;SDS011;14992;50.844;4.418;2023-04-16T12:19:19;15.75;;;8.73;;
22336;SDS011;14992;50.844;4.418;2023-04-16T12:21:49;15.20;;;8.50;;
22336;SDS011;14992;50.844;4.418;2023-04-16T12:24:18;10.90;;;7.63;;
22336;SDS011;14992;50.844;4.418;2023-04-16T12:26:51;14.70;;;8.57;;
22336;SDS011;14992;50.844;4.418;2023-04-16T12:29:24;14.85;;;7.90;;
22336;SDS011;14992;50.844;4.418;2023-04-16T12:31:54;18.35;;;8.10;;
22336;SDS011;14992;50.844;4.418;2023-04-16T12:34:23;17.58;;;8.40;;
22336;SDS011;14992;50.844;4.418;2023-04-16T12:37:11;11.70;;;7.50;;
22336;SDS011;14992;50.844;4.418;2023-04-16T12:39:41;15.77;;;7.60;;
22336;SDS011;14992;50.844;4.418;2023-04-16T12:42:13;16.17;;;8.27;;
22336;SDS011;14992;50.844;4.418;2023-04-16T12:44:42;15.43;;;8.40;;
22336;SDS011;14992;50.844;4.418;2023-04-16T12:47:11;12.57;;;7.80;;
22336;SDS011;14992;50.844;4.418;2023-04-16T12:49:41;14.10;;;8.57;;
22336;SDS011;14992;50.844;4.418;2023-04-16T12:52:12;16.38;;;8.48;;
22336;SDS011;14992;50.844;4.418;2023-04-16T12:54:41;15.95;;;8.35;;
22336;SDS011;14992;50.844;4.418;2023-04-16T12:57:10;14.90;;;8.82;;
22336;SDS011;14992;50.844;4.418;2023-04-16T12:59:40;14.63;;;7.45;;
22336;SDS011;14992;50.844;4.418;2023-04-16T13:02:09;16.45;;;7.68;;
22336;SDS011;14992;50.844;4.418;2023-04-16T13:04:39;14.18;;;7.72;;
22336;SDS011;14992;50.844;4.418;2023-04-16T13:07:08;16.00;;;8.05;;
22336;SDS011;14992;50.844;4.418;2023-04-16T13:09:37;14.05;;;9.45;;
22336;SDS011;14992;50.844;4.418;2023-04-16T13:12:06;17.35;;;10.40;;
22336;SDS011;14992;50.844;4.418;2023-04-16T13:14:35;23.92;;;12.75;;
22336;SDS011;14992;50.844;4.418;2023-04-16T13:17:06;22.90;;;8.98;;
22336;SDS011;14992;50.844;4.418;2023-04-16T13:19:35;19.73;;;9.68;;
22336;SDS011;14992;50.844;4.418;2023-04-16T13:22:04;19.00;;;10.15;;
22336;SDS011;14992;50.844;4.418;2023-04-16T13:24:34;18.10;;;9.38;;
22336;SDS011;14992;50.844;4.418;2023-04-16T13:27:05;15.57;;;9.00;;
22336;SDS011;14992;50.844;4.418;2023-04-16T13:29:35;20.33;;;10.23;;
22336;SDS011;14992;50.844;4.418;2023-04-16T13:32:04;17.02;;;9.48;;
22336;SDS011;14992;50.844;4.418;2023-04-16T13:34:34;17.25;;;10.27;;
22336;SDS011;14992;50.844;4.418;2023-04-16T13:37:03;19.33;;;10.68;;
22336;SDS011;14992;50.844;4.418;2023-04-16T13:39:32;19.23;;;10.48;;
22336;SDS011;14992;50.844;4.418;2023-04-16T13:42:01;18.80;;;10.68;;
22336;SDS011;14992;50.844;4.418;2023-04-16T13:44:30;19.58;;;10.07;;
22336;SDS011;14992;50.844;4.418;2023-04-16T13:47:00;18.40;;;11.40;;
22336;SDS011;14992;50.844;4.418;2023-04-16T13:49:31;19.30;;;9.77;;
22336;SDS011;14992;50.844;4.418;2023-04-16T13:52:02;20.27;;;10.60;;
22336;SDS011;14992;50.844;4.418;2023-04-16T13:54:31;17.33;;;9.55;;
22336;SDS011;14992;50.844;4.418;2023-04-16T13:57:00;16.20;;;10.25;;
22336;SDS011;14992;50.844;4.418;2023-04-16T13:59:29;19.42;;;10.32;;
22336;SDS011;14992;50.844;4.418;2023-04-16T14:01:58;19.10;;;9.68;;
22336;SDS011;14992;50.844;4.418;2023-04-16T14:04:27;14.88;;;9.27;;
22336;SDS011;14992;50.844;4.418;2023-04-16T14:06:58;15.57;;;9.10;;
22336;SDS011;14992;50.844;4.418;2023-04-16T14:09:27;17.20;;;11.15;;
22336;SDS011;14992;50.844;4.418;2023-04-16T14:11:56;20.10;;;11.02;;
22336;SDS011;14992;50.844;4.418;2023-04-16T14:14:25;16.00;;;11.43;;
22336;SDS011;14992;50.844;4.418;2023-04-16T14:16:54;16.50;;;11.68;;
22336;SDS011;14992;50.844;4.418;2023-04-16T14:19:26;19.08;;;10.95;;
22336;SDS011;14992;50.844;4.418;2023-04-16T14:21:55;17.27;;;10.50;;
22336;SDS011;14992;50.844;4.418;2023-04-16T14:24:28;20.98;;;12.23;;
22336;SDS011;14992;50.844;4.418;2023-04-16T14:26:58;16.70;;;10.65;;
22336;SDS011;14992;50.844;4.418;2023-04-16T14:29:27;17.55;;;10.00;;
22336;SDS011;14992;50.844;4.418;2023-04-16T14:31:58;17.10;;;8.95;;
22336;SDS011;14992;50.844;4.418;2023-04-16T14:34:27;14.70;;;10.05;;
22336;SDS011;14992;50.844;4.418;2023-04-16T14:36:56;16.00;;;10.73;;
22336;SDS011;14992;50.844;4.418;2023-04-16T14:39:25;17.25;;;11.32;;
22336;SDS011;14992;50.844;4.418;2023-04-16T14:41:56;22.25;;;11.77;;
22336;SDS011;14992;50.844;4.418;2023-04-16T14:44:25;22.15;;;12.02;;
22336;SDS011;14992;50.844;4.418;2023-04-16T14:46:55;34.85;;;15.55;;
22336;SDS011;14992;50.844;4.418;2023-04-16T14:49:24;17.67;;;11.20;;
22336;SDS011;14992;50.844;4.418;2023-04-16T14:51:59;20.60;;;12.02;;
22336;SDS011;14992;50.844;4.418;2023-04-16T14:54:44;21.60;;;12.88;;
22336;SDS011;14992;50.844;4.418;2023-04-16T14:57:16;19.02;;;10.98;;
22336;SDS011;14992;50.844;4.418;2023-04-16T14:59:45;19.50;;;11.50;;
22336;SDS011;14992;50.844;4.418;2023-04-16T15:02:15;19.10;;;11.70;;
22336;SDS011;14992;50.844;4.418;2023-04-16T15:04:45;17.70;;;10.18;;